createdAt,value
2018-09-17T00:00:51.776Z,7.67
2018-09-17T00:03:18.943Z,7.77
2018-09-17T00:05:46.122Z,7.00
2018-09-17T00:08:13.413Z,7.77
2018-09-17T00:10:40.665Z,7.50
2018-09-17T00:13:07.859Z,7.53
2018-09-17T00:15:35.086Z,7.03
2018-09-17T00:18:02.277Z,7.20
2018-09-17T00:20:29.910Z,7.50
2018-09-17T00:22:57.126Z,7.63
2018-09-17T00:25:24.291Z,7.03
2018-09-17T00:27:51.526Z,7.20
2018-09-17T00:30:18.739Z,7.43
2018-09-17T00:32:45.908Z,7.87
2018-09-17T00:35:13.072Z,7.67
2018-09-17T00:37:40.306Z,8.30
2018-09-17T00:40:07.460Z,7.73
2018-09-17T00:42:34.630Z,7.60
2018-09-17T00:45:01.857Z,7.47
2018-09-17T00:47:29.011Z,7.70
2018-09-17T00:49:57.240Z,7.70
2018-09-17T00:52:24.465Z,8.03
2018-09-17T00:54:51.661Z,7.40
2018-09-17T00:57:18.850Z,7.67
2018-09-17T00:59:46.034Z,8.20
2018-09-17T01:02:13.201Z,7.90
2018-09-17T01:04:40.384Z,7.47
2018-09-17T01:07:07.610Z,7.33
2018-09-17T01:09:40.499Z,7.53
2018-09-17T01:12:07.736Z,7.40
2018-09-17T01:14:34.980Z,7.23
2018-09-17T01:17:02.147Z,7.40
2018-09-17T01:19:29.362Z,7.77
2018-09-17T01:21:56.535Z,7.23
2018-09-17T01:24:23.707Z,7.27
2018-09-17T01:26:50.921Z,7.43
2018-09-17T01:29:18.102Z,8.17
2018-09-17T01:31:45.259Z,8.00
2018-09-17T01:34:12.930Z,7.70
2018-09-17T01:36:40.077Z,7.77
2018-09-17T01:39:08.340Z,8.27
2018-09-17T01:41:35.566Z,8.87
2018-09-17T01:44:02.789Z,8.33
2018-09-17T01:46:29.955Z,8.43
2018-09-17T01:48:57.146Z,8.27
2018-09-17T01:51:24.300Z,9.17
2018-09-17T01:53:51.463Z,8.30
2018-09-17T01:56:18.695Z,8.43
2018-09-17T01:58:45.864Z,7.60
2018-09-17T02:01:13.034Z,7.87
2018-09-17T02:03:40.247Z,8.40
2018-09-17T02:06:07.446Z,7.77
2018-09-17T02:08:34.668Z,8.10
2018-09-17T02:11:01.917Z,7.93
2018-09-17T02:13:29.337Z,7.23
2018-09-17T02:15:56.480Z,7.67
2018-09-17T02:18:23.676Z,7.57
2018-09-17T02:20:50.847Z,7.67
2018-09-17T02:23:18.010Z,7.17
2018-09-17T02:25:45.218Z,7.47
2018-09-17T02:28:12.380Z,7.43
2018-09-17T02:30:39.534Z,8.00
2018-09-17T02:33:06.751Z,7.50
2018-09-17T02:35:33.920Z,7.40
2018-09-17T02:38:01.084Z,7.23
2018-09-17T02:40:28.290Z,7.37
2018-09-17T02:42:55.500Z,6.70
2018-09-17T02:45:22.656Z,7.07
2018-09-17T02:47:49.890Z,8.17
2018-09-17T02:50:17.107Z,7.27
2018-09-17T02:52:44.287Z,7.47
2018-09-17T02:55:11.531Z,8.77
2018-09-17T02:57:38.727Z,6.77
2018-09-17T03:00:07.312Z,6.97
2018-09-17T03:02:34.522Z,7.80
2018-09-17T03:05:01.683Z,7.70
2018-09-17T03:07:28.841Z,8.13
2018-09-17T03:09:56.048Z,7.97
2018-09-17T03:12:23.246Z,7.73
2018-09-17T03:14:50.459Z,8.10
2018-09-17T03:17:17.670Z,8.30
2018-09-17T03:19:45.514Z,9.83
2018-09-17T03:22:13.313Z,8.93
2018-09-17T03:24:40.629Z,8.93
2018-09-17T03:27:08.153Z,8.67
2018-09-17T03:29:35.317Z,8.93
2018-09-17T03:32:02.537Z,9.33
2018-09-17T03:34:29.712Z,9.40
2018-09-17T03:36:56.889Z,9.10
2018-09-17T03:39:24.174Z,9.67
2018-09-17T03:41:51.415Z,9.77
2018-09-17T03:44:18.573Z,10.30
2018-09-17T03:46:45.836Z,10.03
2018-09-17T03:49:12.967Z,10.40
2018-09-17T03:51:40.125Z,9.83
2018-09-17T03:54:07.322Z,9.37
2018-09-17T03:56:34.481Z,9.40
2018-09-17T03:59:01.726Z,8.43
2018-09-17T04:01:28.861Z,8.63
2018-09-17T04:03:56.466Z,8.40
2018-09-17T04:06:23.649Z,9.33
2018-09-17T04:08:50.844Z,8.87
2018-09-17T04:11:18.012Z,8.93
2018-09-17T04:13:45.372Z,9.43
2018-09-17T04:16:12.537Z,9.03
2018-09-17T04:18:39.694Z,8.33
2018-09-17T04:21:07.900Z,8.73
2018-09-17T04:23:36.224Z,8.47
2018-09-17T04:26:04.665Z,8.53
2018-09-17T04:28:32.115Z,9.07
2018-09-17T04:30:59.336Z,8.97
2018-09-17T04:33:27.557Z,9.67
2018-09-17T04:35:54.853Z,11.07
2018-09-17T04:38:22.043Z,9.80
2018-09-17T04:40:49.336Z,9.27
2018-09-17T04:43:16.607Z,9.87
2018-09-17T04:45:43.815Z,9.50
2018-09-17T04:48:11.066Z,8.50
2018-09-17T04:50:38.368Z,9.33
2018-09-17T04:53:05.556Z,9.83
2018-09-17T04:55:32.685Z,9.23
2018-09-17T04:57:59.922Z,9.50
2018-09-17T05:00:27.162Z,9.37
2018-09-17T05:02:54.434Z,8.90
2018-09-17T05:05:21.634Z,10.50
2018-09-17T05:07:48.779Z,11.83
2018-09-17T05:10:15.938Z,11.73
2018-09-17T05:12:43.151Z,10.23
2018-09-17T05:15:10.325Z,10.60
2018-09-17T05:17:37.514Z,10.63
2018-09-17T05:20:04.738Z,11.10
2018-09-17T05:22:31.876Z,10.63
2018-09-17T05:24:59.146Z,10.40
2018-09-17T05:27:26.387Z,10.90
2018-09-17T05:29:53.538Z,10.80
2018-09-17T05:32:20.749Z,10.63
2018-09-17T05:34:47.937Z,11.03
2018-09-17T05:37:15.083Z,10.53
2018-09-17T05:39:42.752Z,11.63
2018-09-17T05:42:10.013Z,10.50
2018-09-17T05:44:37.173Z,10.03
2018-09-17T05:47:04.379Z,9.97
2018-09-17T05:49:31.552Z,10.90
2018-09-17T05:51:58.694Z,10.17
2018-09-17T05:54:25.831Z,9.83
2018-09-17T05:56:53.185Z,10.33
2018-09-17T05:59:20.615Z,10.47
2018-09-17T06:01:47.822Z,10.43
2018-09-17T06:04:15.010Z,10.23
2018-09-17T06:06:42.158Z,9.57
2018-09-17T06:09:10.787Z,10.57
2018-09-17T06:11:37.985Z,11.47
2018-09-17T06:14:05.502Z,9.90
2018-09-17T06:16:32.691Z,9.63
2018-09-17T06:18:59.900Z,9.93
2018-09-17T06:21:27.087Z,8.37
2018-09-17T06:23:54.266Z,8.53
2018-09-17T06:26:21.531Z,7.90
2018-09-17T06:28:48.765Z,6.93
2018-09-17T06:31:16.048Z,7.43
2018-09-17T06:33:43.338Z,7.20
2018-09-17T06:36:10.565Z,7.93
2018-09-17T06:38:37.774Z,7.20
2018-09-17T06:41:05.028Z,7.23
2018-09-17T06:43:32.263Z,7.80
2018-09-17T06:45:59.473Z,7.23
2018-09-17T06:48:26.804Z,6.73
2018-09-17T06:50:53.985Z,7.10
2018-09-17T06:53:21.196Z,6.97
2018-09-17T06:55:48.408Z,6.47
2018-09-17T07:09:36.573Z,6.67
2018-09-17T07:12:04.001Z,6.57
2018-09-17T07:14:31.168Z,6.30
2018-09-17T07:16:58.322Z,6.40
2018-09-17T07:19:25.554Z,5.57
2018-09-17T07:21:52.717Z,5.77
2018-09-17T07:24:19.877Z,6.33
2018-09-17T07:26:47.090Z,6.10
2018-09-17T07:29:14.278Z,5.83
2018-09-17T07:31:41.428Z,5.60
2018-09-17T07:34:08.769Z,5.30
2018-09-17T07:36:36.067Z,5.30
2018-09-17T07:39:05.480Z,5.70
2018-09-17T07:41:32.714Z,5.17
2018-09-17T07:43:59.900Z,5.13
2018-09-17T07:46:27.065Z,5.37
2018-09-17T07:48:54.317Z,5.10
2018-09-17T07:51:21.449Z,4.90
2018-09-17T07:53:48.629Z,4.97
2018-09-17T07:56:15.860Z,5.10
2018-09-17T07:58:43.056Z,4.23
2018-09-17T08:01:10.219Z,4.03
2018-09-17T08:03:37.482Z,4.07
2018-09-17T08:06:04.836Z,4.40
2018-09-17T08:08:32.186Z,5.10
2018-09-17T08:11:00.228Z,3.97
2018-09-17T08:13:27.402Z,3.80
2018-09-17T08:15:54.556Z,4.77
2018-09-17T08:18:21.760Z,3.97
2018-09-17T08:20:48.946Z,3.77
2018-09-17T08:23:16.133Z,4.03
2018-09-17T08:25:43.540Z,3.77
2018-09-17T08:28:10.693Z,4.57
2018-09-17T08:30:37.988Z,3.20
2018-09-17T08:33:05.447Z,3.03
2018-09-17T08:35:33.201Z,3.70
2018-09-17T08:38:00.368Z,3.23
2018-09-17T08:40:27.772Z,5.97
2018-09-17T08:42:55.340Z,3.70
2018-09-17T08:45:22.542Z,3.30
2018-09-17T08:47:50.025Z,3.17
2018-09-17T08:50:17.429Z,2.97
2018-09-17T08:52:44.806Z,3.17
2018-09-17T08:55:16.594Z,3.10
2018-09-17T08:57:49.387Z,3.20
2018-09-17T09:00:18.086Z,2.87
2018-09-17T09:02:51.016Z,2.77
2018-09-17T09:06:23.622Z,2.70
2018-09-17T09:08:50.968Z,2.80
2018-09-17T09:11:25.709Z,2.97
2018-09-17T09:13:56.015Z,7.60
2018-09-17T09:16:23.995Z,3.33
2018-09-17T09:18:51.186Z,2.90
2018-09-17T09:21:18.402Z,2.80
2018-09-17T09:23:45.581Z,2.87
2018-09-17T09:26:12.941Z,2.80
2018-09-17T09:28:40.225Z,2.50
2018-09-17T09:31:07.467Z,2.70
2018-09-17T09:33:34.663Z,2.40
2018-09-17T09:36:01.880Z,2.73
2018-09-17T09:38:29.072Z,2.80
2018-09-17T09:43:59.265Z,2.93
2018-09-17T09:46:26.433Z,2.70
2018-09-17T09:48:53.597Z,2.40
2018-09-17T09:51:20.830Z,2.80
2018-09-17T09:53:48.014Z,2.90
2018-09-17T09:56:15.199Z,2.67
2018-09-17T09:58:42.487Z,3.77
2018-09-17T10:01:15.700Z,2.50
2018-09-17T10:03:43.947Z,2.40
2018-09-17T10:06:12.528Z,2.40
2018-09-17T10:08:46.510Z,2.73
2018-09-17T10:11:19.262Z,2.77
2018-09-17T10:13:52.270Z,2.40
2018-09-17T10:16:24.491Z,2.20
2018-09-17T10:18:57.301Z,2.53
2018-09-17T10:21:24.682Z,2.40
2018-09-17T10:23:56.725Z,2.57
2018-09-17T10:26:24.283Z,2.30
2018-09-17T10:29:07.807Z,2.30
2018-09-17T10:31:48.322Z,2.33
2018-09-17T10:34:25.552Z,1.73
2018-09-17T10:37:08.526Z,1.90
2018-09-17T10:39:52.746Z,1.70
2018-09-17T10:42:19.924Z,1.97
2018-09-17T10:44:47.153Z,1.90
2018-09-17T10:47:14.622Z,1.80
2018-09-17T10:49:41.765Z,1.80
2018-09-17T10:52:12.869Z,1.70
2018-09-17T10:54:40.189Z,1.87
2018-09-17T10:57:07.330Z,1.70
2018-09-17T10:59:34.599Z,1.97
2018-09-17T11:02:01.856Z,2.00
2018-09-17T11:04:29.082Z,1.70
2018-09-17T11:06:56.302Z,1.80
2018-09-17T11:09:23.502Z,1.80
2018-09-17T11:11:50.848Z,2.20
2018-09-17T11:14:17.981Z,2.00
2018-09-17T11:16:45.221Z,2.07
2018-09-17T11:19:12.389Z,2.00
2018-09-17T11:21:39.629Z,1.73
2018-09-17T11:24:06.932Z,1.77
2018-09-17T11:26:34.106Z,1.80
2018-09-17T11:29:01.304Z,1.97
2018-09-17T11:31:28.575Z,1.90
2018-09-17T11:33:55.704Z,1.60
2018-09-17T11:36:22.932Z,1.60
2018-09-17T11:38:50.285Z,1.90
2018-09-17T11:41:17.486Z,1.90
2018-09-17T11:43:44.618Z,2.00
2018-09-17T11:46:11.788Z,1.90
2018-09-17T11:48:38.993Z,1.87
2018-09-17T11:51:06.164Z,1.83
2018-09-17T11:53:33.419Z,1.73
2018-09-17T11:56:00.628Z,1.80
2018-09-17T11:58:27.773Z,1.60
2018-09-17T12:01:01.687Z,1.87
2018-09-17T12:03:34.405Z,1.63
2018-09-17T12:06:02.972Z,1.73
2018-09-17T12:08:30.093Z,2.10
2018-09-17T12:10:57.308Z,1.90
2018-09-17T12:13:24.811Z,2.00
2018-09-17T12:15:52.037Z,1.80
2018-09-17T12:18:19.147Z,1.70
2018-09-17T12:20:46.339Z,2.00
2018-09-17T12:23:13.475Z,2.00
2018-09-17T12:25:40.623Z,1.90
2018-09-17T12:28:07.905Z,2.00
2018-09-17T12:30:35.064Z,2.00
2018-09-17T12:33:02.258Z,1.90
2018-09-17T12:35:29.436Z,1.93
2018-09-17T12:37:56.621Z,1.80
2018-09-17T12:40:24.806Z,1.97
2018-09-17T12:42:52.233Z,2.10
2018-09-17T12:45:19.984Z,2.27
2018-09-17T12:47:47.372Z,1.90
2018-09-17T12:50:14.655Z,2.37
2018-09-17T12:52:41.850Z,1.90
2018-09-17T12:55:09.036Z,2.60
2018-09-17T12:57:36.731Z,2.00
2018-09-17T13:00:06.147Z,2.00
2018-09-17T13:02:33.437Z,3.70
2018-09-17T13:05:00.730Z,2.20
2018-09-17T13:07:28.030Z,2.03
2018-09-17T13:09:55.220Z,2.27
2018-09-17T13:12:22.412Z,1.90
2018-09-17T13:14:49.850Z,2.03
2018-09-17T13:17:17.302Z,1.90
2018-09-17T13:19:45.375Z,2.30
2018-09-17T13:22:12.598Z,2.10
2018-09-17T13:24:40.940Z,2.17
2018-09-17T13:27:08.154Z,2.23
2018-09-17T13:29:35.298Z,2.00
2018-09-17T13:32:02.550Z,2.13
2018-09-17T13:34:29.734Z,2.23
2018-09-17T13:36:56.884Z,2.10
2018-09-17T13:39:24.102Z,2.33
2018-09-17T13:41:51.314Z,2.27
2018-09-17T13:44:18.569Z,2.10
2018-09-17T13:46:45.633Z,1.80
2018-09-17T13:49:12.834Z,2.30
2018-09-17T13:51:40.012Z,1.93
2018-09-17T13:54:07.827Z,2.00
2018-09-17T13:56:35.092Z,2.40
2018-09-17T13:59:02.318Z,2.03
2018-09-17T14:01:29.549Z,1.60
2018-09-17T14:03:56.883Z,1.80
2018-09-17T14:06:24.198Z,1.77
2018-09-17T14:08:51.405Z,1.90
2018-09-17T14:11:18.652Z,2.10
2018-09-17T14:13:45.975Z,2.27
2018-09-17T14:16:13.333Z,2.00
2018-09-17T14:18:40.986Z,2.17
2018-09-17T14:21:08.201Z,2.20
2018-09-17T14:23:35.414Z,2.17
2018-09-17T14:26:02.902Z,2.00
2018-09-17T14:28:30.100Z,1.93
2018-09-17T14:30:57.376Z,1.60
2018-09-17T14:33:30.360Z,1.70
2018-09-17T14:35:57.604Z,2.00
2018-09-17T14:38:25.078Z,1.93
2018-09-17T14:40:52.573Z,1.80
2018-09-17T14:43:19.893Z,2.10
2018-09-17T14:45:47.013Z,2.13
2018-09-17T14:48:14.221Z,1.90
2018-09-17T14:50:41.439Z,2.17
2018-09-17T14:53:08.770Z,1.90
2018-09-17T14:55:36.074Z,1.93
2018-09-17T14:58:03.330Z,2.10
2018-09-17T15:00:30.495Z,2.17
2018-09-17T15:02:57.713Z,1.77
2018-09-17T15:05:24.880Z,2.00
2018-09-17T15:07:52.149Z,1.80
2018-09-17T15:10:19.434Z,1.80
2018-09-17T15:12:46.552Z,1.90
2018-09-17T15:15:13.734Z,1.90
2018-09-17T15:17:41.008Z,1.60
2018-09-17T15:20:08.222Z,1.70
2018-09-17T15:22:35.402Z,1.97
2018-09-17T15:25:02.701Z,1.73
2018-09-17T15:27:29.857Z,1.80
2018-09-17T15:29:57.165Z,1.87
2018-09-17T15:32:24.535Z,2.00
2018-09-17T15:34:51.618Z,1.90
2018-09-17T15:37:18.761Z,1.90
2018-09-17T15:39:45.945Z,1.80
2018-09-17T15:42:13.172Z,2.40
2018-09-17T15:44:40.331Z,1.97
2018-09-17T15:47:07.544Z,2.10
2018-09-17T15:49:34.708Z,1.67
2018-09-17T15:52:01.911Z,1.90
2018-09-17T15:54:29.121Z,2.13
2018-09-17T15:56:56.264Z,1.80
2018-09-17T15:59:23.416Z,2.00
2018-09-17T16:01:50.724Z,2.10
2018-09-17T16:04:17.919Z,2.30
2018-09-17T16:06:45.057Z,2.00
2018-09-17T16:09:12.255Z,2.20
2018-09-17T16:11:39.402Z,2.20
2018-09-17T16:14:06.560Z,2.20
2018-09-17T16:16:33.873Z,2.17
2018-09-17T16:19:01.020Z,2.50
2018-09-17T16:21:28.173Z,2.13
2018-09-17T16:23:55.378Z,2.27
2018-09-17T16:26:22.496Z,2.00
2018-09-17T16:28:49.788Z,2.00
2018-09-17T16:31:17.102Z,2.30
2018-09-17T16:33:44.253Z,2.20
2018-09-17T16:36:11.481Z,2.20
2018-09-17T16:38:38.670Z,2.10
2018-09-17T16:41:06.237Z,2.00
2018-09-17T16:43:33.538Z,2.00
2018-09-17T16:46:00.726Z,2.20
2018-09-17T16:48:27.868Z,2.00
2018-09-17T16:50:54.980Z,2.10
2018-09-17T16:53:22.469Z,2.20
2018-09-17T16:55:49.728Z,2.47
2018-09-17T16:58:16.913Z,2.20
2018-09-17T17:00:44.146Z,2.10
2018-09-17T17:03:11.436Z,2.20
2018-09-17T17:05:38.581Z,2.40
2018-09-17T17:08:05.770Z,2.60
2018-09-17T17:10:32.888Z,2.27
2018-09-17T17:13:00.008Z,2.23
2018-09-17T17:15:27.181Z,2.67
2018-09-17T17:17:54.289Z,2.83
2018-09-17T17:20:21.477Z,2.70
2018-09-17T17:22:48.724Z,2.57
2018-09-17T17:25:15.840Z,2.80
2018-09-17T17:27:43.072Z,2.93
2018-09-17T17:30:10.331Z,2.70
2018-09-17T17:32:37.497Z,2.90
2018-09-17T17:35:04.754Z,2.63
2018-09-17T17:37:31.913Z,2.87
2018-09-17T17:39:59.160Z,3.23
2018-09-17T17:42:26.216Z,3.20
2018-09-17T17:44:53.914Z,3.20
2018-09-17T17:47:21.044Z,3.20
2018-09-17T17:49:48.277Z,3.40
2018-09-17T17:52:15.694Z,3.10
2018-09-17T17:54:42.899Z,3.50
2018-09-17T17:57:10.029Z,3.37
2018-09-17T17:59:37.223Z,3.93
2018-09-17T18:02:04.428Z,4.13
2018-09-17T18:04:31.572Z,3.87
2018-09-17T18:06:58.812Z,4.00
2018-09-17T18:09:26.103Z,4.00
2018-09-17T18:11:53.369Z,3.60
2018-09-17T18:14:20.584Z,4.10
2018-09-17T18:16:47.752Z,3.70
2018-09-17T18:19:14.957Z,4.13
2018-09-17T18:21:42.271Z,4.83
2018-09-17T18:24:09.428Z,5.03
2018-09-17T18:26:36.618Z,5.53
2018-09-17T18:29:03.924Z,9.33
2018-09-17T18:31:31.205Z,7.23
2018-09-17T18:33:58.503Z,9.13
2018-09-17T18:36:25.746Z,9.50
2018-09-17T18:38:52.912Z,11.60
2018-09-17T18:41:20.110Z,11.77
2018-09-17T18:43:47.332Z,12.47
2018-09-17T18:46:14.531Z,11.20
2018-09-17T18:48:42.798Z,11.17
2018-09-17T18:51:10.231Z,9.07
2018-09-17T18:53:37.394Z,9.37
2018-09-17T18:56:04.586Z,8.30
2018-09-17T18:58:31.899Z,8.90
2018-09-17T19:00:59.227Z,7.70
2018-09-17T19:03:26.487Z,7.60
2018-09-17T19:05:53.875Z,8.27
2018-09-17T19:08:21.089Z,7.27
2018-09-17T19:10:48.406Z,8.20
2018-09-17T19:13:15.658Z,7.93
2018-09-17T19:15:48.697Z,7.97
2018-09-17T19:18:15.931Z,7.43
2018-09-17T19:20:43.448Z,7.50
2018-09-17T19:23:16.199Z,7.07
2018-09-17T19:25:43.371Z,6.67
2018-09-17T19:28:16.186Z,6.33
2018-09-17T19:30:43.232Z,6.13
2018-09-17T19:33:10.372Z,6.00
2018-09-17T19:35:37.541Z,5.83
2018-09-17T19:38:10.380Z,6.30
2018-09-17T19:40:44.939Z,6.27
2018-09-17T19:43:17.232Z,6.37
2018-09-17T19:48:58.386Z,7.03
2018-09-17T19:54:06.284Z,6.40
2018-09-17T19:56:33.436Z,6.77
2018-09-17T19:59:08.554Z,6.57
2018-09-17T20:01:35.968Z,6.70
2018-09-17T20:04:08.852Z,6.93
2018-09-17T20:06:35.992Z,6.27
2018-09-17T20:09:04.043Z,7.17
2018-09-17T20:11:31.244Z,6.80
2018-09-17T20:13:58.408Z,7.57
2018-09-17T20:16:25.596Z,7.63
2018-09-17T20:18:52.790Z,7.07
2018-09-17T20:21:22.048Z,8.17
2018-09-17T20:23:49.193Z,7.13
2018-09-17T20:26:16.402Z,8.07
2018-09-17T20:28:43.570Z,7.93
2018-09-17T20:31:10.752Z,7.73
2018-09-17T20:33:37.996Z,8.07
2018-09-17T20:36:05.230Z,8.00
2018-09-17T20:38:32.422Z,8.27
2018-09-17T20:40:59.601Z,8.93
2018-09-17T20:43:26.790Z,10.70
2018-09-17T20:45:53.944Z,11.63
2018-09-17T20:48:21.153Z,11.00
2018-09-17T20:50:48.440Z,11.40
2018-09-17T20:53:15.595Z,10.13
2018-09-17T20:55:42.944Z,10.90
2018-09-17T20:58:10.053Z,11.20
2018-09-17T21:00:37.265Z,10.30
2018-09-17T21:03:04.460Z,10.13
2018-09-17T21:05:31.633Z,10.47
2018-09-17T21:07:59.837Z,10.67
2018-09-17T21:10:27.071Z,10.30
2018-09-17T21:12:54.260Z,10.13
2018-09-17T21:15:21.465Z,10.03
2018-09-17T21:17:48.677Z,9.73
2018-09-17T21:20:15.826Z,9.60
2018-09-17T21:22:43.078Z,9.27
2018-09-17T21:25:10.320Z,10.63
2018-09-17T21:27:37.480Z,10.20
2018-09-17T21:30:04.997Z,9.93
2018-09-17T21:32:32.491Z,9.10
2018-09-17T21:34:59.662Z,8.83
2018-09-17T21:37:26.826Z,8.30
2018-09-17T21:39:54.037Z,9.33
2018-09-17T21:42:21.214Z,8.10
2018-09-17T21:44:48.380Z,8.93
2018-09-17T21:47:16.021Z,8.00
2018-09-17T21:49:43.193Z,7.83
2018-09-17T21:52:10.369Z,7.87
2018-09-17T21:54:37.597Z,8.43
2018-09-17T21:57:05.856Z,8.47
2018-09-17T21:59:33.018Z,8.57
2018-09-17T22:02:00.304Z,8.67
2018-09-17T22:04:27.541Z,8.57
2018-09-17T22:06:54.693Z,8.37
2018-09-17T22:09:21.921Z,8.17
2018-09-17T22:11:49.108Z,8.13
2018-09-17T22:14:16.270Z,8.17
2018-09-17T22:16:43.494Z,7.40
2018-09-17T22:19:10.665Z,7.53
2018-09-17T22:21:37.832Z,7.53
2018-09-17T22:24:06.242Z,7.33
2018-09-17T22:26:33.401Z,7.83
2018-09-17T22:29:00.619Z,7.40
2018-09-17T22:31:27.789Z,6.93
2018-09-17T22:33:54.954Z,6.87
2018-09-17T22:36:22.100Z,6.47
2018-09-17T22:38:49.335Z,6.97
2018-09-17T22:41:16.516Z,7.07
2018-09-17T22:43:43.693Z,6.77
2018-09-17T22:46:10.911Z,6.40
2018-09-17T22:48:38.052Z,6.77
2018-09-17T22:51:05.838Z,6.63
2018-09-17T22:53:33.074Z,7.20
2018-09-17T22:56:04.782Z,6.80
2018-09-17T22:58:31.932Z,6.90
2018-09-17T23:00:59.136Z,6.67
2018-09-17T23:03:26.399Z,6.47
2018-09-17T23:05:53.580Z,6.30
2018-09-17T23:08:20.769Z,6.77
2018-09-17T23:10:47.938Z,7.30
2018-09-17T23:13:15.118Z,7.50
2018-09-17T23:15:42.385Z,7.43
2018-09-17T23:18:09.538Z,7.23
2018-09-17T23:20:36.716Z,7.03
2018-09-17T23:23:03.951Z,7.10
2018-09-17T23:25:31.111Z,6.80
2018-09-17T23:27:58.307Z,7.23
2018-09-17T23:30:25.496Z,7.40
2018-09-17T23:32:52.641Z,7.50
2018-09-17T23:35:19.800Z,7.40
2018-09-17T23:37:46.995Z,7.50
2018-09-17T23:40:14.191Z,7.03
2018-09-17T23:42:41.353Z,7.40
2018-09-17T23:45:08.598Z,7.57
2018-09-17T23:47:35.753Z,8.20
2018-09-17T23:50:02.944Z,7.97
2018-09-17T23:52:30.206Z,6.93
2018-09-17T23:54:57.374Z,7.17
2018-09-17T23:57:24.578Z,6.83
2018-09-17T23:59:51.812Z,6.47
